Time;durP1;ratioP1;P1;durP2;ratioP2;P2;SDS_P1;SDS_P2;PMS_P1;PMS_P2;Temp;Humidity;BMP_temperature;BMP_pressure;BME280_temperature;BME280_humidity;BME280_pressure;Samples;Min_cycle;Max_cycle;Signal;HPM_P1;HPM_P2
2023/08/21 00:00:07;;;;;;;21.70;19.00;;;;;;;-128.00;-1.00;-1.00;105376;1253;1004255;-81
2023/08/21 00:02:34;;;;;;;21.40;19.10;;;;;;;-128.00;-1.00;-1.00;105556;1253;1005255;-81
2023/08/21 00:05:00;;;;;;;21.20;17.80;;;;;;;-128.00;-1.00;-1.00;105531;1253;1003791;-80
2023/08/21 00:07:27;;;;;;;24.90;19.20;;;;;;;-128.00;-1.00;-1.00;105559;1252;1004246;-81
2023/08/21 00:09:53;;;;;;;25.90;18.10;;;;;;;-128.00;-1.00;-1.00;105586;1252;1004792;-80
2023/08/21 00:12:20;;;;;;;21.90;18.30;;;;;;;-128.00;-1.00;-1.00;105579;1252;1005379;-81
2023/08/21 00:14:46;;;;;;;21.50;17.40;;;;;;;-128.00;-1.00;-1.00;105538;1253;1004742;-81
2023/08/21 00:17:13;;;;;;;25.10;19.10;;;;;;;-128.00;-1.00;-1.00;105599;1253;1004410;-81
2023/08/21 00:19:39;;;;;;;20.50;17.40;;;;;;;-128.00;-1.00;-1.00;105372;1253;1003942;-81
2023/08/21 00:22:06;;;;;;;22.70;18.30;;;;;;;-128.00;-1.00;-1.00;105532;1253;1005105;-80
2023/08/21 00:24:32;;;;;;;24.90;17.50;;;;;;;-128.00;-1.00;-1.00;105507;1252;1005091;-80
2023/08/21 00:26:59;;;;;;;23.80;19.40;;;;;;;-128.00;-1.00;-1.00;105504;1253;1004710;-80
2023/08/21 00:29:26;;;;;;;22.40;17.20;;;;;;;-128.00;-1.00;-1.00;105532;1253;1004125;-80
2023/08/21 00:31:52;;;;;;;26.80;17.90;;;;;;;-128.00;-1.00;-1.00;105266;1252;1005096;-80
2023/08/21 00:34:19;;;;;;;20.10;17.40;;;;;;;-128.00;-1.00;-1.00;105551;1252;1004009;-80
2023/08/21 00:36:45;;;;;;;24.40;18.40;;;;;;;-128.00;-1.00;-1.00;105538;1253;1004337;-81
2023/08/21 00:39:12;;;;;;;21.30;18.90;;;;;;;-128.00;-1.00;-1.00;105489;1253;1003390;-81
2023/08/21 00:41:39;;;;;;;19.80;17.20;;;;;;;-128.00;-1.00;-1.00;105528;1253;1004064;-81
2023/08/21 00:44:05;;;;;;;23.80;17.60;;;;;;;-128.00;-1.00;-1.00;105552;1253;1004341;-80
2023/08/21 00:46:32;;;;;;;23.20;17.60;;;;;;;-128.00;-1.00;-1.00;105544;1253;1004869;-80
2023/08/21 00:48:58;;;;;;;20.40;17.40;;;;;;;-128.00;-1.00;-1.00;105376;1253;1004575;-80
2023/08/21 00:51:25;;;;;;;28.30;19.60;;;;;;;-128.00;-1.00;-1.00;105403;1252;1005148;-80
2023/08/21 00:53:51;;;;;;;24.50;18.30;;;;;;;-128.00;-1.00;-1.00;105539;1254;1003815;-81
2023/08/21 00:56:18;;;;;;;26.70;17.90;;;;;;;-128.00;-1.00;-1.00;105541;1253;1004579;-80
2023/08/21 00:58:45;;;;;;;20.80;18.30;;;;;;;-128.00;-1.00;-1.00;105386;1253;1004015;-81
2023/08/21 01:01:12;;;;;;;21.70;17.50;;;;;;;-128.00;-1.00;-1.00;105552;1253;1004566;-81
2023/08/21 01:03:38;;;;;;;22.20;16.10;;;;;;;-128.00;-1.00;-1.00;105387;1256;1004308;-81
2023/08/21 01:06:05;;;;;;;21.70;17.30;;;;;;;-128.00;-1.00;-1.00;105537;1253;1003720;-81
2023/08/21 01:08:43;;;;;;;21.60;17.40;;;;;;;-128.00;-1.00;-1.00;105554;1253;1004215;-81
2023/08/21 01:11:21;;;;;;;25.10;17.20;;;;;;;-128.00;-1.00;-1.00;105402;1252;1057681;-80
2023/08/21 01:14:12;;;;;;;20.90;17.00;;;;;;;-128.00;-1.00;-1.00;105544;1253;1059508;-81
2023/08/21 01:16:38;;;;;;;22.20;16.80;;;;;;;-128.00;-1.00;-1.00;105498;1253;1046732;-81
2023/08/21 01:19:09;;;;;;;21.40;16.80;;;;;;;-128.00;-1.00;-1.00;105378;1252;1004179;-81
2023/08/21 01:21:35;;;;;;;23.40;17.50;;;;;;;-128.00;-1.00;-1.00;105516;1253;1062259;-81
2023/08/21 01:24:02;;;;;;;26.70;18.80;;;;;;;-128.00;-1.00;-1.00;105483;1253;1004743;-81
2023/08/21 01:26:28;;;;;;;22.20;17.90;;;;;;;-128.00;-1.00;-1.00;105523;1253;1004536;-81
2023/08/21 01:28:54;;;;;;;21.10;18.00;;;;;;;-128.00;-1.00;-1.00;105524;1253;1003949;-81
2023/08/21 01:31:33;;;;;;;21.80;18.40;;;;;;;-128.00;-1.00;-1.00;105548;1253;1004364;-81
2023/08/21 01:34:03;;;;;;;24.80;19.40;;;;;;;-128.00;-1.00;-1.00;105380;1254;1062017;-81
2023/08/21 01:36:30;;;;;;;23.70;18.30;;;;;;;-128.00;-1.00;-1.00;105537;1253;1058855;-82
2023/08/21 01:38:56;;;;;;;23.10;18.60;;;;;;;-128.00;-1.00;-1.00;105495;1253;1004345;-81
2023/08/21 01:41:24;;;;;;;23.30;18.50;;;;;;;-128.00;-1.00;-1.00;105513;1252;1003990;-80
2023/08/21 01:43:50;;;;;;;25.30;17.20;;;;;;;-128.00;-1.00;-1.00;105528;1252;1004360;-80
2023/08/21 01:46:17;;;;;;;22.10;17.90;;;;;;;-128.00;-1.00;-1.00;105566;1253;1004503;-81
2023/08/21 01:48:44;;;;;;;24.10;17.50;;;;;;;-128.00;-1.00;-1.00;105311;1254;1004112;-80
2023/08/21 01:51:10;;;;;;;21.50;18.10;;;;;;;-128.00;-1.00;-1.00;105521;1256;1004431;-80
2023/08/21 01:53:37;;;;;;;20.00;16.90;;;;;;;-128.00;-1.00;-1.00;105514;1253;1004793;-80
2023/08/21 01:56:03;;;;;;;22.90;16.20;;;;;;;-128.00;-1.00;-1.00;105563;1253;1004084;-80
2023/08/21 01:58:30;;;;;;;17.50;14.60;;;;;;;-128.00;-1.00;-1.00;105533;1253;1004344;-80
2023/08/21 02:00:56;;;;;;;16.70;14.70;;;;;;;-128.00;-1.00;-1.00;105591;1253;1004321;-80
2023/08/21 02:03:25;;;;;;;18.70;15.60;;;;;;;-128.00;-1.00;-1.00;105521;1252;1004149;-80
2023/08/21 02:05:56;;;;;;;20.30;17.40;;;;;;;-128.00;-1.00;-1.00;105492;1253;1004339;-80
2023/08/21 02:08:34;;;;;;;19.20;16.80;;;;;;;-128.00;-1.00;-1.00;105503;1254;1047340;-80
2023/08/21 02:11:00;;;;;;;21.30;17.70;;;;;;;-128.00;-1.00;-1.00;105538;1254;1061356;-80
2023/08/21 02:13:27;;;;;;;32.90;19.20;;;;;;;-128.00;-1.00;-1.00;105550;1252;1004382;-80
2023/08/21 02:15:53;;;;;;;20.70;17.40;;;;;;;-128.00;-1.00;-1.00;105519;1252;1003894;-80
2023/08/21 02:18:20;;;;;;;19.70;16.90;;;;;;;-128.00;-1.00;-1.00;105515;1253;1003693;-80
2023/08/21 02:20:47;;;;;;;19.70;17.60;;;;;;;-128.00;-1.00;-1.00;105398;1256;1004058;-81
2023/08/21 02:23:13;;;;;;;22.60;17.00;;;;;;;-128.00;-1.00;-1.00;105384;1254;1004978;-81
2023/08/21 02:25:40;;;;;;;22.30;17.60;;;;;;;-128.00;-1.00;-1.00;105387;1253;1005097;-81
2023/08/21 02:28:06;;;;;;;25.20;18.80;;;;;;;-128.00;-1.00;-1.00;105404;1252;1003467;-81
2023/08/21 02:30:33;;;;;;;25.00;18.60;;;;;;;-128.00;-1.00;-1.00;105492;1253;1004616;-81
2023/08/21 02:32:59;;;;;;;24.20;18.30;;;;;;;-128.00;-1.00;-1.00;105518;1253;1004437;-81
2023/08/21 02:35:26;;;;;;;20.70;17.40;;;;;;;-128.00;-1.00;-1.00;105509;1253;1004338;-80
2023/08/21 02:37:52;;;;;;;21.80;17.40;;;;;;;-128.00;-1.00;-1.00;105539;1253;1005105;-80
2023/08/21 02:40:19;;;;;;;22.60;16.20;;;;;;;-128.00;-1.00;-1.00;105540;1253;1004752;-81
2023/08/21 02:42:45;;;;;;;22.90;16.60;;;;;;;-128.00;-1.00;-1.00;105514;1254;1004979;-81
2023/08/21 02:45:12;;;;;;;20.10;16.00;;;;;;;-128.00;-1.00;-1.00;105501;1253;1004103;-81
2023/08/21 02:47:38;;;;;;;23.70;17.10;;;;;;;-128.00;-1.00;-1.00;105508;1253;1004479;-81
2023/08/21 02:50:05;;;;;;;22.80;16.30;;;;;;;-128.00;-1.00;-1.00;105417;1253;1003918;-81
2023/08/21 02:52:33;;;;;;;18.00;16.10;;;;;;;-128.00;-1.00;-1.00;105513;1253;1004065;-81
2023/08/21 02:54:59;;;;;;;21.00;16.80;;;;;;;-128.00;-1.00;-1.00;105525;1252;1004636;-80
2023/08/21 02:57:26;;;;;;;19.00;16.10;;;;;;;-128.00;-1.00;-1.00;105530;1253;1004736;-81
2023/08/21 02:59:53;;;;;;;20.90;16.70;;;;;;;-128.00;-1.00;-1.00;105556;1253;1004627;-80
2023/08/21 03:02:19;;;;;;;18.70;16.20;;;;;;;-128.00;-1.00;-1.00;105531;1253;1003790;-80
2023/08/21 03:04:46;;;;;;;20.40;16.80;;;;;;;-128.00;-1.00;-1.00;105494;1253;1004240;-80
2023/08/21 03:07:13;;;;;;;19.00;16.00;;;;;;;-128.00;-1.00;-1.00;105521;1253;1004423;-80
2023/08/21 03:09:40;;;;;;;24.80;17.70;;;;;;;-128.00;-1.00;-1.00;105512;1252;1004863;-81
2023/08/21 03:12:07;;;;;;;27.10;16.90;;;;;;;-128.00;-1.00;-1.00;105541;1253;1004508;-80
2023/08/21 03:14:34;;;;;;;21.80;16.70;;;;;;;-128.00;-1.00;-1.00;105512;1253;1005042;-80
2023/08/21 03:17:00;;;;;;;17.90;14.90;;;;;;;-128.00;-1.00;-1.00;105504;1253;1004926;-80
2023/08/21 03:19:27;;;;;;;20.70;17.30;;;;;;;-128.00;-1.00;-1.00;105532;1252;1005014;-80
2023/08/21 03:21:54;;;;;;;21.50;17.30;;;;;;;-128.00;-1.00;-1.00;105536;1252;1004319;-80
2023/08/21 03:24:21;;;;;;;23.10;18.00;;;;;;;-128.00;-1.00;-1.00;105575;1253;1003725;-80
2023/08/21 03:26:47;;;;;;;23.20;19.10;;;;;;;-128.00;-1.00;-1.00;105541;1253;1003968;-80
2023/08/21 03:29:14;;;;;;;24.20;18.00;;;;;;;-128.00;-1.00;-1.00;105527;1253;1004584;-81
2023/08/21 03:31:40;;;;;;;20.40;17.60;;;;;;;-128.00;-1.00;-1.00;105515;1254;1004830;-80
2023/08/21 03:34:08;;;;;;;20.80;17.60;;;;;;;-128.00;-1.00;-1.00;105548;1254;1004027;-82
2023/08/21 03:36:37;;;;;;;24.00;18.20;;;;;;;-128.00;-1.00;-1.00;105514;1253;1003681;-81
2023/08/21 03:39:06;;;;;;;;;;;;;;;-128.00;-1.00;-1.00;105502;1254;1058169;-80
2023/08/21 03:41:32;;;;;;;20.60;17.40;;;;;;;-128.00;-1.00;-1.00;105512;1253;1059046;-81
2023/08/21 03:43:59;;;;;;;20.90;17.50;;;;;;;-128.00;-1.00;-1.00;105500;1253;1003432;-81
2023/08/21 03:46:25;;;;;;;24.10;17.80;;;;;;;-128.00;-1.00;-1.00;105527;1253;1004559;-81
2023/08/21 03:48:52;;;;;;;22.20;17.50;;;;;;;-128.00;-1.00;-1.00;105534;1252;1004355;-80
2023/08/21 03:51:18;;;;;;;22.40;16.90;;;;;;;-128.00;-1.00;-1.00;105515;1253;1004488;-81
2023/08/21 03:53:45;;;;;;;24.20;18.60;;;;;;;-128.00;-1.00;-1.00;105513;1254;1005087;-81
2023/08/21 03:56:11;;;;;;;23.50;18.20;;;;;;;-128.00;-1.00;-1.00;105467;1253;1004458;-81
2023/08/21 03:58:38;;;;;;;21.00;18.60;;;;;;;-128.00;-1.00;-1.00;105518;1254;1004591;-81
2023/08/21 04:01:04;;;;;;;26.30;19.60;;;;;;;-128.00;-1.00;-1.00;105528;1254;1005162;-81
2023/08/21 04:03:31;;;;;;;24.40;20.20;;;;;;;-128.00;-1.00;-1.00;105384;1253;1004010;-81
2023/08/21 04:05:58;;;;;;;25.70;20.30;;;;;;;-128.00;-1.00;-1.00;105393;1258;1004615;-81
2023/08/21 04:08:25;;;;;;;24.60;19.30;;;;;;;-128.00;-1.00;-1.00;105526;1253;1004792;-80
2023/08/21 04:10:59;;;;;;;29.10;18.90;;;;;;;-128.00;-1.00;-1.00;105517;1253;1004607;-80
2023/08/21 04:13:25;;;;;;;23.60;17.50;;;;;;;-128.00;-1.00;-1.00;105502;1254;1062298;-81
2023/08/21 04:15:53;;;;;;;26.00;20.50;;;;;;;-128.00;-1.00;-1.00;105415;1254;1004031;-81
2023/08/21 04:18:20;;;;;;;21.80;16.40;;;;;;;-128.00;-1.00;-1.00;105407;1252;1004602;-80
2023/08/21 04:20:49;;;;;;;24.20;17.30;;;;;;;-128.00;-1.00;-1.00;105519;1253;1004744;-80
2023/08/21 04:23:16;;;;;;;18.10;16.20;;;;;;;-128.00;-1.00;-1.00;105532;1253;1047474;-80
2023/08/21 04:25:43;;;;;;;20.00;17.30;;;;;;;-128.00;-1.00;-1.00;105487;1253;1004225;-81
2023/08/21 04:28:09;;;;;;;18.30;16.30;;;;;;;-128.00;-1.00;-1.00;105408;1254;1003996;-80
2023/08/21 04:30:36;;;;;;;20.40;17.10;;;;;;;-128.00;-1.00;-1.00;105472;1252;1003384;-81
2023/08/21 04:33:02;;;;;;;25.20;17.80;;;;;;;-128.00;-1.00;-1.00;105452;1253;1005157;-80
2023/08/21 04:35:29;;;;;;;21.30;16.00;;;;;;;-128.00;-1.00;-1.00;105507;1254;1004874;-80
2023/08/21 04:37:55;;;;;;;22.10;17.00;;;;;;;-128.00;-1.00;-1.00;105536;1252;1004514;-81
2023/08/21 04:40:24;;;;;;;25.00;16.80;;;;;;;-128.00;-1.00;-1.00;105516;1253;1004974;-80
2023/08/21 04:42:50;;;;;;;23.30;16.90;;;;;;;-128.00;-1.00;-1.00;105512;1252;1004199;-80
2023/08/21 04:45:17;;;;;;;20.70;16.50;;;;;;;-128.00;-1.00;-1.00;105389;1253;1005194;-81
2023/08/21 04:47:43;;;;;;;17.00;14.80;;;;;;;-128.00;-1.00;-1.00;105499;1253;1004128;-81
2023/08/21 04:50:12;;;;;;;20.60;15.80;;;;;;;-128.00;-1.00;-1.00;105522;1252;1004508;-81
2023/08/21 04:52:38;;;;;;;19.20;16.10;;;;;;;-128.00;-1.00;-1.00;105500;1254;1004849;-81
2023/08/21 04:55:06;;;;;;;20.10;15.50;;;;;;;-128.00;-1.00;-1.00;105501;1254;1004391;-81
2023/08/21 04:57:32;;;;;;;20.60;16.30;;;;;;;-128.00;-1.00;-1.00;105457;1254;1003861;-81
2023/08/21 04:59:59;;;;;;;24.40;16.70;;;;;;;-128.00;-1.00;-1.00;105425;1253;1004944;-81
2023/08/21 05:02:25;;;;;;;20.20;16.70;;;;;;;-128.00;-1.00;-1.00;105524;1253;1004775;-81
2023/08/21 05:04:52;;;;;;;18.40;15.70;;;;;;;-128.00;-1.00;-1.00;105530;1254;1006153;-81
2023/08/21 05:07:18;;;;;;;24.20;17.80;;;;;;;-128.00;-1.00;-1.00;105488;1253;1003597;-81
2023/08/21 05:09:45;;;;;;;18.80;16.80;;;;;;;-128.00;-1.00;-1.00;105516;1252;1003472;-82
2023/08/21 05:12:11;;;;;;;19.30;15.30;;;;;;;-128.00;-1.00;-1.00;105521;1254;1004423;-81
2023/08/21 05:14:38;;;;;;;23.50;17.20;;;;;;;-128.00;-1.00;-1.00;105410;1254;1004494;-81
2023/08/21 05:17:04;;;;;;;20.90;17.20;;;;;;;-128.00;-1.00;-1.00;105529;1253;1004954;-81
2023/08/21 05:19:31;;;;;;;19.90;17.50;;;;;;;-128.00;-1.00;-1.00;105478;1253;1004735;-81
2023/08/21 05:21:57;;;;;;;23.90;17.80;;;;;;;-128.00;-1.00;-1.00;105471;1253;1004058;-81
2023/08/21 05:24:24;;;;;;;24.60;18.30;;;;;;;-128.00;-1.00;-1.00;105476;1253;1004590;-81
2023/08/21 05:26:50;;;;;;;18.00;16.10;;;;;;;-128.00;-1.00;-1.00;105358;1253;1003952;-81
2023/08/21 05:29:17;;;;;;;24.10;15.90;;;;;;;-128.00;-1.00;-1.00;105512;1253;1004026;-81
2023/08/21 05:31:43;;;;;;;18.40;15.60;;;;;;;-128.00;-1.00;-1.00;105385;1252;1004167;-81
2023/08/21 05:34:10;;;;;;;18.30;16.10;;;;;;;-128.00;-1.00;-1.00;105427;1253;1005044;-80
2023/08/21 05:36:36;;;;;;;19.70;15.30;;;;;;;-128.00;-1.00;-1.00;105413;1256;1004430;-80
2023/08/21 05:39:05;;;;;;;17.90;15.10;;;;;;;-128.00;-1.00;-1.00;105489;1254;1005022;-81
2023/08/21 05:41:32;;;;;;;24.00;16.40;;;;;;;-128.00;-1.00;-1.00;105488;1253;1059038;-81
2023/08/21 05:43:59;;;;;;;26.10;16.20;;;;;;;-128.00;-1.00;-1.00;105492;1253;1004838;-81
2023/08/21 05:46:25;;;;;;;18.40;15.70;;;;;;;-128.00;-1.00;-1.00;105479;1254;1004546;-81
2023/08/21 05:48:52;;;;;;;17.50;14.40;;;;;;;-128.00;-1.00;-1.00;105456;1253;1004770;-81
2023/08/21 05:51:18;;;;;;;21.00;16.50;;;;;;;-128.00;-1.00;-1.00;105502;1253;1003718;-81
2023/08/21 05:53:45;;;;;;;19.50;15.80;;;;;;;-128.00;-1.00;-1.00;105531;1254;1004911;-80
2023/08/21 05:56:11;;;;;;;18.60;16.60;;;;;;;-128.00;-1.00;-1.00;105501;1254;1004143;-82
2023/08/21 05:58:38;;;;;;;17.90;15.90;;;;;;;-128.00;-1.00;-1.00;105390;1254;1004556;-81
2023/08/21 06:01:04;;;;;;;20.50;14.80;;;;;;;-128.00;-1.00;-1.00;105438;1253;1004946;-81
2023/08/21 06:03:31;;;;;;;22.70;14.40;;;;;;;-128.00;-1.00;-1.00;105424;1254;1004061;-81
2023/08/21 06:05:58;;;;;;;19.80;15.50;;;;;;;-128.00;-1.00;-1.00;105485;1253;1004218;-81
2023/08/21 06:08:25;;;;;;;19.20;14.70;;;;;;;-128.00;-1.00;-1.00;105473;1253;1003961;-81
2023/08/21 06:10:52;;;;;;;17.90;15.40;;;;;;;-128.00;-1.00;-1.00;105515;1253;1004769;-81
2023/08/21 06:13:18;;;;;;;20.50;14.60;;;;;;;-128.00;-1.00;-1.00;105494;1253;1003701;-81
2023/08/21 06:15:45;;;;;;;16.30;13.70;;;;;;;-128.00;-1.00;-1.00;105554;1253;1004006;-81
2023/08/21 06:18:11;;;;;;;17.50;13.70;;;;;;;-128.00;-1.00;-1.00;105484;1253;1003323;-82
2023/08/21 06:20:38;;;;;;;16.60;14.60;;;;;;;-128.00;-1.00;-1.00;105468;1253;1003519;-82
2023/08/21 06:23:04;;;;;;;20.40;13.90;;;;;;;-128.00;-1.00;-1.00;105486;1253;1004764;-81
2023/08/21 06:25:32;;;;;;;18.20;13.20;;;;;;;-128.00;-1.00;-1.00;105434;1253;1004843;-81
2023/08/21 06:27:59;;;;;;;19.50;15.20;;;;;;;-128.00;-1.00;-1.00;105446;1254;1003888;-81
2023/08/21 06:30:26;;;;;;;17.50;13.70;;;;;;;-128.00;-1.00;-1.00;105503;1253;1004934;-81
2023/08/21 06:32:54;;;;;;;16.50;13.60;;;;;;;-128.00;-1.00;-1.00;105473;1253;1004090;-81
2023/08/21 06:35:20;;;;;;;18.90;15.10;;;;;;;-128.00;-1.00;-1.00;105538;1253;1004224;-81
2023/08/21 06:37:47;;;;;;;14.30;12.90;;;;;;;-128.00;-1.00;-1.00;105555;1253;1003795;-81
2023/08/21 06:40:13;;;;;;;15.50;13.90;;;;;;;-128.00;-1.00;-1.00;105628;1253;1004165;-81
2023/08/21 06:42:40;;;;;;;15.60;12.80;;;;;;;-128.00;-1.00;-1.00;105632;1253;1003652;-81
2023/08/21 06:45:07;;;;;;;14.60;13.10;;;;;;;-128.00;-1.00;-1.00;105553;1253;1004053;-81
2023/08/21 06:47:34;;;;;;;19.20;13.00;;;;;;;-128.00;-1.00;-1.00;105450;1252;1003757;-81
2023/08/21 06:50:00;;;;;;;15.00;13.50;;;;;;;-128.00;-1.00;-1.00;105587;1253;1003906;-81
2023/08/21 06:52:27;;;;;;;14.30;12.60;;;;;;;-128.00;-1.00;-1.00;105482;1253;1004642;-81
2023/08/21 06:54:53;;;;;;;16.20;13.80;;;;;;;-128.00;-1.00;-1.00;105445;1254;1004431;-81
2023/08/21 06:57:20;;;;;;;14.50;11.80;;;;;;;-128.00;-1.00;-1.00;105483;1253;1003593;-82
2023/08/21 06:59:46;;;;;;;14.70;12.80;;;;;;;-128.00;-1.00;-1.00;105385;1254;1004185;-81
2023/08/21 07:02:13;;;;;;;16.30;13.60;;;;;;;-128.00;-1.00;-1.00;105447;1254;1003803;-82
2023/08/21 07:04:39;;;;;;;15.10;13.20;;;;;;;-128.00;-1.00;-1.00;105469;1254;1004148;-81
2023/08/21 07:07:06;;;;;;;20.30;15.00;;;;;;;-128.00;-1.00;-1.00;105526;1253;1003761;-81
2023/08/21 07:09:32;;;;;;;20.20;12.90;;;;;;;-128.00;-1.00;-1.00;105393;1254;1003535;-81
2023/08/21 07:11:59;;;;;;;14.10;11.90;;;;;;;-128.00;-1.00;-1.00;105393;1253;1004087;-81
2023/08/21 07:14:25;;;;;;;18.40;12.70;;;;;;;-128.00;-1.00;-1.00;105460;1253;1004248;-81
2023/08/21 07:16:52;;;;;;;14.40;11.40;;;;;;;-128.00;-1.00;-1.00;105468;1253;1004858;-82
2023/08/21 07:19:18;;;;;;;18.10;12.40;;;;;;;-128.00;-1.00;-1.00;105437;1254;1004617;-81
2023/08/21 07:21:45;;;;;;;12.30;10.50;;;;;;;-128.00;-1.00;-1.00;105468;1256;1004464;-81
2023/08/21 07:24:11;;;;;;;13.10;11.70;;;;;;;-128.00;-1.00;-1.00;105427;1256;1004378;-81
2023/08/21 07:26:37;;;;;;;13.10;11.00;;;;;;;-128.00;-1.00;-1.00;105469;1253;1003790;-81
2023/08/21 07:29:04;;;;;;;12.20;10.80;;;;;;;-128.00;-1.00;-1.00;105468;1253;1004515;-82
2023/08/21 07:31:31;;;;;;;15.20;12.50;;;;;;;-128.00;-1.00;-1.00;105498;1254;1003849;-82
2023/08/21 07:33:57;;;;;;;16.40;10.70;;;;;;;-128.00;-1.00;-1.00;105440;1254;1004994;-82
2023/08/21 07:36:24;;;;;;;13.50;11.00;;;;;;;-128.00;-1.00;-1.00;105463;1253;1003834;-82
2023/08/21 07:38:50;;;;;;;15.70;10.50;;;;;;;-128.00;-1.00;-1.00;105507;1252;1004959;-82
2023/08/21 07:41:17;;;;;;;13.60;11.40;;;;;;;-128.00;-1.00;-1.00;105522;1253;1004561;-83
2023/08/21 07:43:43;;;;;;;17.10;11.60;;;;;;;-128.00;-1.00;-1.00;105484;1254;1003682;-82
2023/08/21 07:46:18;;;;;;;15.20;10.90;;;;;;;-128.00;-1.00;-1.00;105437;1254;1004627;-81
2023/08/21 07:48:45;;;;;;;13.00;11.70;;;;;;;-128.00;-1.00;-1.00;105507;1254;1046473;-82
2023/08/21 07:51:11;;;;;;;13.80;11.20;;;;;;;-128.00;-1.00;-1.00;105364;1255;1004526;-82
2023/08/21 07:53:38;;;;;;;11.10;10.10;;;;;;;-128.00;-1.00;-1.00;105492;1254;1004334;-82
2023/08/21 07:56:04;;;;;;;10.60;9.50;;;;;;;-128.00;-1.00;-1.00;105385;1254;1004202;-82
2023/08/21 07:58:31;;;;;;;14.50;11.60;;;;;;;-128.00;-1.00;-1.00;105536;1254;1004847;-82
2023/08/21 08:00:58;;;;;;;11.30;9.90;;;;;;;-128.00;-1.00;-1.00;105470;1254;1004317;-82
2023/08/21 08:03:25;;;;;;;17.90;9.90;;;;;;;-128.00;-1.00;-1.00;105368;1253;1005306;-82
2023/08/21 08:05:52;;;;;;;10.30;9.20;;;;;;;-128.00;-1.00;-1.00;105451;1253;1004353;-82
2023/08/21 08:08:18;;;;;;;9.70;8.70;;;;;;;-128.00;-1.00;-1.00;105489;1254;1004390;-83
2023/08/21 08:10:44;;;;;;;15.80;10.50;;;;;;;-128.00;-1.00;-1.00;105515;1253;1004457;-83
2023/08/21 08:13:11;;;;;;;9.50;8.60;;;;;;;-128.00;-1.00;-1.00;105497;1253;1003984;-83
2023/08/21 08:15:38;;;;;;;10.50;9.40;;;;;;;-128.00;-1.00;-1.00;105406;1254;1004042;-82
2023/08/21 08:18:07;;;;;;;11.30;9.00;;;;;;;-128.00;-1.00;-1.00;105471;1254;1003598;-82
2023/08/21 08:20:33;;;;;;;11.00;9.40;;;;;;;-128.00;-1.00;-1.00;105503;1252;1057687;-82
2023/08/21 08:23:00;;;;;;;9.90;8.70;;;;;;;-128.00;-1.00;-1.00;105494;1253;1005204;-82
2023/08/21 08:25:26;;;;;;;10.30;8.90;;;;;;;-128.00;-1.00;-1.00;105411;1254;1004160;-82
2023/08/21 08:27:53;;;;;;;11.00;8.90;;;;;;;-128.00;-1.00;-1.00;105530;1254;1004048;-83
2023/08/21 08:30:19;;;;;;;13.80;9.40;;;;;;;-128.00;-1.00;-1.00;105461;1254;1003925;-82
2023/08/21 08:32:46;;;;;;;10.40;9.40;;;;;;;-128.00;-1.00;-1.00;105578;1252;1005008;-83
2023/08/21 08:35:13;;;;;;;10.30;8.70;;;;;;;-128.00;-1.00;-1.00;105500;1254;1005271;-82
2023/08/21 08:37:40;;;;;;;;;;;;;;;-128.00;-1.00;-1.00;105504;1254;1004737;-83
2023/08/21 08:40:07;;;;;;;9.40;7.90;;;;;;;-128.00;-1.00;-1.00;105486;1254;1004299;-83
2023/08/21 08:42:34;;;;;;;9.40;8.00;;;;;;;-128.00;-1.00;-1.00;105490;1254;1004821;-83
2023/08/21 08:45:03;;;;;;;8.70;7.70;;;;;;;-128.00;-1.00;-1.00;105399;1254;1004011;-83
2023/08/21 08:47:34;;;;;;;9.20;8.30;;;;;;;-128.00;-1.00;-1.00;105550;1253;1059081;-82
2023/08/21 08:50:05;;;;;;;9.60;8.70;;;;;;;-128.00;-1.00;-1.00;105280;1254;1044954;-82
2023/08/21 08:52:35;;;;;;;10.60;8.60;;;;;;;-128.00;-1.00;-1.00;105540;1254;1048209;-82
2023/08/21 08:55:02;;;;;;;10.50;8.60;;;;;;;-128.00;-1.00;-1.00;105520;1254;1060928;-82
2023/08/21 08:57:29;;;;;;;;;;;;;;;-128.00;-1.00;-1.00;105479;1254;1004022;-82
2023/08/21 08:59:56;;;;;;;14.60;9.80;;;;;;;-128.00;-1.00;-1.00;105495;1253;1004416;-83
2023/08/21 09:02:26;;;;;;;13.10;9.90;;;;;;;-128.00;-1.00;-1.00;105502;1252;1004144;-82
2023/08/21 09:04:53;;;;;;;10.80;9.60;;;;;;;-128.00;-1.00;-1.00;105238;1254;1047193;-82
2023/08/21 09:07:20;;;;;;;16.50;9.80;;;;;;;-128.00;-1.00;-1.00;105461;1254;1004712;-82
2023/08/21 09:09:49;;;;;;;10.30;9.20;;;;;;;-128.00;-1.00;-1.00;105441;1256;1004665;-82
2023/08/21 09:12:16;;;;;;;13.10;10.80;;;;;;;-128.00;-1.00;-1.00;105374;1253;1058964;-83
2023/08/21 09:14:43;;;;;;;11.20;9.50;;;;;;;-128.00;-1.00;-1.00;105362;1253;1004328;-83
2023/08/21 09:17:10;;;;;;;11.20;9.90;;;;;;;-128.00;-1.00;-1.00;105459;1256;1004498;-83
2023/08/21 09:19:36;;;;;;;10.00;9.00;;;;;;;-128.00;-1.00;-1.00;105469;1256;1005572;-82
2023/08/21 09:22:22;;;;;;;13.60;9.80;;;;;;;-128.00;-1.00;-1.00;105235;1254;1004934;-82
2023/08/21 09:25:07;;;;;;;10.80;9.70;;;;;;;-128.00;-1.00;-1.00;105453;1252;1058928;-83
2023/08/21 09:27:34;;;;;;;11.10;9.80;;;;;;;-128.00;-1.00;-1.00;105511;1253;1043956;-82
2023/08/21 09:30:04;;;;;;;12.30;9.20;;;;;;;-128.00;-1.00;-1.00;105478;1255;1004405;-83
2023/08/21 09:32:30;;;;;;;11.70;10.20;;;;;;;-128.00;-1.00;-1.00;105491;1254;1061618;-83
2023/08/21 09:34:57;;;;;;;10.50;9.50;;;;;;;-128.00;-1.00;-1.00;105440;1254;1003473;-83
2023/08/21 09:37:28;;;;;;;16.20;10.00;;;;;;;-128.00;-1.00;-1.00;105451;1254;1004613;-83
2023/08/21 09:39:54;;;;;;;15.70;10.60;;;;;;;-128.00;-1.00;-1.00;105349;1254;1044259;-83
2023/08/21 09:42:21;;;;;;;10.90;9.60;;;;;;;-128.00;-1.00;-1.00;105281;1253;1004174;-83
2023/08/21 09:44:47;;;;;;;11.20;10.10;;;;;;;-128.00;-1.00;-1.00;105469;1253;1004191;-83
2023/08/21 09:47:14;;;;;;;13.20;9.80;;;;;;;-128.00;-1.00;-1.00;105290;1254;1003632;-83
2023/08/21 09:49:40;;;;;;;11.40;9.90;;;;;;;-128.00;-1.00;-1.00;105494;1254;1004881;-83
2023/08/21 09:52:07;;;;;;;14.70;9.60;;;;;;;-128.00;-1.00;-1.00;105561;1254;1005228;-83
2023/08/21 09:54:33;;;;;;;12.00;10.80;;;;;;;-128.00;-1.00;-1.00;105475;1254;1003886;-83
2023/08/21 09:57:02;;;;;;;15.80;10.80;;;;;;;-128.00;-1.00;-1.00;105360;1254;1005139;-84
2023/08/21 09:59:29;;;;;;;19.80;10.20;;;;;;;-128.00;-1.00;-1.00;105547;1253;1003527;-83
2023/08/21 10:01:55;;;;;;;;;;;;;;;-128.00;-1.00;-1.00;105543;1254;1003827;-83
2023/08/21 10:04:22;;;;;;;11.30;9.80;;;;;;;-128.00;-1.00;-1.00;105593;1254;1004833;-83
2023/08/21 10:06:49;;;;;;;10.60;9.50;;;;;;;-128.00;-1.00;-1.00;105305;1254;1003709;-83
2023/08/21 10:09:15;;;;;;;13.50;10.30;;;;;;;-128.00;-1.00;-1.00;105111;1254;1003643;-83
2023/08/21 10:11:42;;;;;;;10.90;9.90;;;;;;;-128.00;-1.00;-1.00;105395;1254;1004269;-83
2023/08/21 10:14:09;;;;;;;11.70;10.60;;;;;;;-128.00;-1.00;-1.00;105524;1253;1004068;-83
2023/08/21 10:16:36;;;;;;;19.20;11.30;;;;;;;-128.00;-1.00;-1.00;105372;1252;1004840;-83
2023/08/21 10:19:05;;;;;;;16.10;11.80;;;;;;;-128.00;-1.00;-1.00;105447;1254;1005059;-83
2023/08/21 10:21:35;;;;;;;12.40;11.00;;;;;;;-128.00;-1.00;-1.00;105398;1254;1063652;-83
2023/08/21 10:24:02;;;;;;;15.00;10.50;;;;;;;-128.00;-1.00;-1.00;105541;1253;1058680;-82
2023/08/21 10:26:29;;;;;;;13.90;11.60;;;;;;;-128.00;-1.00;-1.00;105481;1254;1004014;-82
2023/08/21 10:29:01;;;;;;;12.20;11.00;;;;;;;-128.00;-1.00;-1.00;105450;1256;1005122;-82
2023/08/21 10:31:29;;;;;;;14.20;10.90;;;;;;;-128.00;-1.00;-1.00;105460;1254;1046913;-82
2023/08/21 10:33:55;;;;;;;18.60;11.80;;;;;;;-128.00;-1.00;-1.00;105510;1254;1003455;-82
2023/08/21 10:36:42;;;;;;;16.80;11.80;;;;;;;-128.00;-1.00;-1.00;105471;1254;1004256;-82
2023/08/21 10:39:19;;;;;;;15.40;11.40;;;;;;;-128.00;-1.00;-1.00;105454;1254;1059911;-82
2023/08/21 10:41:56;;;;;;;14.90;11.80;;;;;;;-128.00;-1.00;-1.00;105479;1253;1045444;-82
2023/08/21 10:44:35;;;;;;;17.40;13.50;;;;;;;-128.00;-1.00;-1.00;105510;1253;1047408;-82
2023/08/21 10:47:20;;;;;;;13.90;11.80;;;;;;;-128.00;-1.00;-1.00;105444;1254;1062280;-82
2023/08/21 10:49:48;;;;;;;15.40;12.40;;;;;;;-128.00;-1.00;-1.00;105465;1253;1058275;-82
2023/08/21 10:52:17;;;;;;;14.50;12.10;;;;;;;-128.00;-1.00;-1.00;105518;1253;1004205;-82
2023/08/21 10:54:47;;;;;;;16.80;11.00;;;;;;;-128.00;-1.00;-1.00;105503;1253;1044239;-82
2023/08/21 10:57:14;;;;;;;15.90;12.60;;;;;;;-128.00;-1.00;-1.00;105344;1253;1047077;-82
2023/08/21 11:00:00;;;;;;;14.50;11.60;;;;;;;-128.00;-1.00;-1.00;105498;1255;1004178;-82
2023/08/21 11:02:28;;;;;;;13.90;12.50;;;;;;;-128.00;-1.00;-1.00;105481;1255;1057834;-82
2023/08/21 11:04:55;;;;;;;14.00;12.40;;;;;;;-128.00;-1.00;-1.00;105477;1253;1061210;-82